Time;durP1;ratioP1;P1;durP2;ratioP2;P2;SDS_P1;SDS_P2;PMS_P1;PMS_P2;Temp;Humidity;BMP_temperature;BMP_pressure;BME280_temperature;BME280_humidity;BME280_pressure;Samples;Min_cycle;Max_cycle;Signal;HPM_P1;HPM_P2
2023/05/17 00:00:47;;;;;;;2.63;1.67;;;7.60;83.40;;;;;;5034161;28;20017;-73
2023/05/17 00:03:13;;;;;;;4.10;1.80;;;7.60;83.20;;;;;;5033977;28;20022;-73
2023/05/17 00:05:38;;;;;;;6.82;1.85;;;7.60;83.00;;;;;;5033736;28;20033;-73
2023/05/17 00:08:04;;;;;;;4.60;1.90;;;7.50;83.10;;;;;;5033985;28;20532;-73
2023/05/17 00:10:30;;;;;;;7.00;1.73;;;7.50;82.80;;;;;;5033870;28;20083;-72
2023/05/17 00:12:55;;;;;;;4.60;2.10;;;7.40;82.80;;;;;;5032782;28;20021;-73
2023/05/17 00:15:21;;;;;;;4.28;1.63;;;7.40;82.90;;;;;;5032400;28;20474;-73
2023/05/17 00:17:46;;;;;;;4.65;1.88;;;7.40;83.10;;;;;;5033832;28;20541;-73
2023/05/17 00:20:12;;;;;;;7.72;1.88;;;7.40;83.30;;;;;;5033825;28;20515;-73
2023/05/17 00:22:39;;;;;;;5.15;1.90;;;7.40;83.30;;;;;;5033823;28;20060;-73
2023/05/17 00:25:05;;;;;;;6.22;1.90;;;7.40;83.10;;;;;;5033794;28;20056;-73
2023/05/17 00:27:31;;;;;;;2.95;1.52;;;7.40;82.80;;;;;;5033699;28;20113;-73
2023/05/17 00:29:57;;;;;;;5.45;2.05;;;7.40;82.90;;;;;;5033534;28;20061;-75
2023/05/17 00:32:22;;;;;;;3.17;1.83;;;7.40;82.90;;;;;;5033725;28;20147;-74
2023/05/17 00:34:48;;;;;;;3.97;1.88;;;7.40;82.70;;;;;;5033652;28;20428;-74
2023/05/17 00:37:13;;;;;;;4.72;2.20;;;7.30;82.60;;;;;;5033668;28;20025;-74
2023/05/17 00:39:39;;;;;;;7.63;2.63;;;7.40;82.40;;;;;;5033521;28;20030;-73
2023/05/17 00:42:05;;;;;;;4.05;2.13;;;7.30;82.10;;;;;;5033472;28;20041;-73
2023/05/17 00:44:30;;;;;;;4.45;1.80;;;7.30;82.20;;;;;;5033271;28;20041;-73
2023/05/17 00:46:58;;;;;;;3.45;1.48;;;7.30;82.20;;;;;;5033178;28;20156;-73
2023/05/17 00:49:25;;;;;;;4.10;1.38;;;7.30;82.20;;;;;;5032218;28;20028;-73
2023/05/17 00:51:51;;;;;;;5.55;1.65;;;7.20;82.30;;;;;;5033356;28;20064;-73
2023/05/17 00:54:17;;;;;;;3.25;1.25;;;7.20;82.40;;;;;;5033318;28;20037;-73
2023/05/17 00:56:43;;;;;;;3.83;1.60;;;7.20;82.50;;;;;;5033322;28;20045;-73
2023/05/17 00:59:11;;;;;;;4.13;1.70;;;7.30;82.50;;;;;;5033069;28;20068;-73
2023/05/17 01:01:40;;;;;;;5.72;1.52;;;7.30;82.30;;;;;;5033243;28;20026;-73
2023/05/17 01:04:06;;;;;;;4.68;1.60;;;7.30;82.20;;;;;;5033188;28;20431;-74
2023/05/17 01:06:31;;;;;;;2.63;1.13;;;7.20;82.10;;;;;;5032128;28;20056;-74
2023/05/17 01:08:57;;;;;;;2.95;1.50;;;7.20;82.20;;;;;;5033219;28;20029;-74
2023/05/17 01:11:47;;;;;;;2.70;1.10;;;7.20;82.20;;;;;;5032980;28;20510;-74
2023/05/17 01:14:36;;;;;;;4.55;1.70;;;7.20;82.10;;;;;;5033134;28;20040;-74
2023/05/17 01:17:12;;;;;;;5.93;1.73;;;7.10;82.50;;;;;;5033092;28;20407;-73
2023/05/17 01:19:50;;;;;;;3.58;1.52;;;7.10;82.60;;;;;;5033171;28;20022;-73
2023/05/17 01:22:52;;;;;;;4.90;1.42;;;7.10;82.40;;;;;;5032912;28;20071;-73
2023/05/17 01:25:30;;;;;;;3.33;1.52;;;7.10;82.30;;;;;;5039307;28;20041;-75
2023/05/17 01:27:59;;;;;;;4.90;1.35;;;7.10;82.30;;;;;;5033169;28;20026;-74
2023/05/17 01:30:25;;;;;;;3.88;1.27;;;7.10;82.30;;;;;;5032543;28;20028;-73
2023/05/17 01:32:56;;;;;;;3.22;1.60;;;7.10;82.40;;;;;;5033702;28;20018;-73
2023/05/17 01:35:21;;;;;;;4.43;1.40;;;7.10;82.50;;;;;;5032991;28;20078;-74
2023/05/17 01:37:47;;;;;;;4.88;1.60;;;7.10;82.50;;;;;;5032883;28;20106;-75
2023/05/17 01:40:13;;;;;;;3.72;1.33;;;7.10;82.40;;;;;;5032833;28;20033;-73
2023/05/17 01:42:41;;;;;;;3.92;1.38;;;7.10;82.10;;;;;;5032883;28;20021;-73
2023/05/17 01:45:22;;;;;;;3.33;1.40;;;7.10;82.10;;;;;;5032699;28;20044;-73
2023/05/17 01:48:36;;;;;;;4.88;1.83;;;7.00;81.90;;;;;;5032516;28;20045;-73
2023/05/17 01:51:02;;;;;;;4.82;1.98;;;7.00;82.20;;;;;;5019314;28;20041;-73
2023/05/17 01:53:47;;;;;;;2.28;1.38;;;6.90;82.30;;;;;;5032426;28;20493;-74
2023/05/17 01:56:27;;;;;;;5.90;1.80;;;7.00;82.40;;;;;;5031349;28;20039;-73
2023/05/17 01:58:55;;;;;;;3.90;1.48;;;6.90;82.50;;;;;;5031236;28;20382;-74
2023/05/17 02:01:22;;;;;;;7.65;1.70;;;6.90;82.60;;;;;;5032424;28;20029;-74
2023/05/17 02:03:49;;;;;;;3.33;1.50;;;6.90;82.80;;;;;;5032253;28;20115;-72
2023/05/17 02:06:15;;;;;;;4.45;1.45;;;6.90;82.70;;;;;;5032513;28;20026;-77
2023/05/17 02:08:40;;;;;;;4.45;1.30;;;6.80;82.60;;;;;;5031081;28;20481;-74
2023/05/17 02:11:06;;;;;;;1.83;1.20;;;6.80;82.70;;;;;;5031195;28;20069;-73
2023/05/17 02:13:32;;;;;;;4.72;1.48;;;6.70;82.80;;;;;;5032536;28;20024;-77
2023/05/17 02:16:01;;;;;;;2.63;1.15;;;6.70;83.00;;;;;;5032495;28;20100;-75
2023/05/17 02:18:27;;;;;;;3.25;1.20;;;6.80;82.90;;;;;;5036158;28;20057;-73
2023/05/17 02:20:53;;;;;;;1.75;1.30;;;6.80;82.80;;;;;;5036059;28;20022;-74
2023/05/17 02:23:19;;;;;;;3.40;1.25;;;6.80;82.70;;;;;;5034717;28;20036;-78
2023/05/17 02:25:44;;;;;;;3.00;1.35;;;6.80;82.30;;;;;;5035742;28;20038;-74
2023/05/17 02:28:11;;;;;;;3.05;1.33;;;6.70;82.40;;;;;;5035945;28;20470;-78
2023/05/17 02:30:40;;;;;;;4.25;1.25;;;6.70;82.60;;;;;;5034603;28;20040;-77
2023/05/17 02:33:06;;;;;;;5.82;1.48;;;6.70;82.80;;;;;;5035890;28;20473;-74
2023/05/17 02:35:31;;;;;;;1.55;1.20;;;6.60;82.70;;;;;;5035792;28;20421;-77
2023/05/17 02:37:57;;;;;;;4.28;1.33;;;6.60;82.60;;;;;;5035572;28;20025;-75
2023/05/17 02:40:23;;;;;;;4.18;1.73;;;6.60;82.70;;;;;;5035651;28;20449;-76
2023/05/17 02:42:48;;;;;;;2.75;1.38;;;6.50;82.80;;;;;;5034362;28;20059;-77
2023/05/17 02:45:14;;;;;;;4.45;1.20;;;6.60;82.70;;;;;;5035486;28;20516;-75
2023/05/17 02:47:40;;;;;;;3.10;1.30;;;6.60;82.70;;;;;;5034262;28;20104;-77
2023/05/17 02:50:05;;;;;;;2.08;1.40;;;6.50;82.60;;;;;;5035710;28;20021;-76
2023/05/17 02:52:31;;;;;;;2.70;1.25;;;6.50;82.70;;;;;;5035855;28;20113;-76
2023/05/17 02:54:56;;;;;;;2.90;1.33;;;6.50;82.60;;;;;;5035409;28;20033;-74
2023/05/17 02:57:22;;;;;;;2.75;1.30;;;6.50;82.70;;;;;;5035564;28;20028;-76
2023/05/17 02:59:48;;;;;;;1.55;0.98;;;6.40;82.60;;;;;;5035450;28;20037;-75
2023/05/17 03:02:13;;;;;;;3.40;1.15;;;6.50;82.70;;;;;;5035381;28;20100;-74
2023/05/17 03:04:39;;;;;;;2.70;1.20;;;6.40;82.70;;;;;;5035219;28;20048;-74
2023/05/17 03:07:05;;;;;;;3.63;1.30;;;6.50;82.70;;;;;;5035150;28;20047;-72
2023/05/17 03:09:30;;;;;;;3.78;1.35;;;6.50;82.60;;;;;;5035143;28;20026;-72
2023/05/17 03:11:56;;;;;;;3.90;0.90;;;6.40;82.30;;;;;;5035133;28;20029;-73
2023/05/17 03:14:21;;;;;;;1.48;0.90;;;6.40;82.20;;;;;;5034968;28;20026;-73
2023/05/17 03:16:47;;;;;;;2.00;1.30;;;6.30;82.40;;;;;;5034965;28;20116;-72
2023/05/17 03:19:12;;;;;;;4.65;1.20;;;6.30;82.40;;;;;;5035076;28;20025;-73
2023/05/17 03:21:38;;;;;;;3.67;1.30;;;6.30;82.30;;;;;;5034937;28;20124;-73
2023/05/17 03:24:04;;;;;;;3.05;1.25;;;6.20;82.00;;;;;;5034869;28;20029;-73
2023/05/17 03:26:32;;;;;;;2.03;1.10;;;6.30;82.10;;;;;;5034795;28;20033;-73
2023/05/17 03:28:57;;;;;;;4.30;1.17;;;6.20;82.10;;;;;;5033931;28;20478;-73
2023/05/17 03:31:23;;;;;;;3.13;1.52;;;6.20;82.00;;;;;;5034734;28;20075;-73
2023/05/17 03:33:49;;;;;;;3.00;1.10;;;6.20;81.70;;;;;;5033425;28;20105;-73
2023/05/17 03:36:14;;;;;;;2.22;1.00;;;6.20;81.50;;;;;;5034650;28;20037;-73
2023/05/17 03:38:40;;;;;;;2.83;1.02;;;6.20;81.70;;;;;;5034677;28;20025;-72
2023/05/17 03:41:05;;;;;;;2.17;1.08;;;6.10;81.70;;;;;;5034402;28;20025;-73
2023/05/17 03:43:31;;;;;;;3.25;1.30;;;6.10;81.50;;;;;;5034582;28;20018;-74
2023/05/17 03:45:57;;;;;;;3.28;1.25;;;6.00;81.40;;;;;;5034231;28;20038;-73
2023/05/17 03:48:22;;;;;;;3.45;1.45;;;6.00;81.30;;;;;;5034342;28;20064;-73
2023/05/17 03:50:48;;;;;;;1.70;1.20;;;6.00;81.40;;;;;;5034211;28;20025;-74
2023/05/17 03:53:15;;;;;;;1.52;1.02;;;5.90;81.40;;;;;;5034189;28;20533;-73
2023/05/17 03:55:40;;;;;;;3.88;1.20;;;5.90;81.60;;;;;;5034235;28;20017;-74
2023/05/17 03:58:06;;;;;;;1.35;1.23;;;5.80;81.70;;;;;;5034154;28;20437;-73
2023/05/17 04:00:32;;;;;;;2.35;1.60;;;5.80;81.70;;;;;;5034164;28;20017;-73
2023/05/17 04:02:57;;;;;;;3.28;2.33;;;5.90;81.70;;;;;;5034117;28;20037;-73
2023/05/17 04:05:23;;;;;;;3.58;1.98;;;5.80;81.40;;;;;;5033911;28;20041;-73
2023/05/17 04:07:48;;;;;;;2.03;1.65;;;5.80;81.40;;;;;;5034098;28;20034;-74
2023/05/17 04:10:15;;;;;;;1.92;1.40;;;5.80;81.20;;;;;;5034109;28;20022;-74
2023/05/17 04:12:40;;;;;;;5.13;1.65;;;5.80;81.30;;;;;;5032693;28;20450;-73
2023/05/17 04:15:06;;;;;;;4.53;1.95;;;5.70;81.40;;;;;;5033956;28;20096;-73
2023/05/17 04:17:32;;;;;;;6.32;2.40;;;5.60;80.90;;;;;;5034066;28;20030;-73
2023/05/17 04:19:57;;;;;;;4.95;2.20;;;5.60;81.00;;;;;;5032551;28;20362;-74
2023/05/17 04:22:23;;;;;;;4.05;2.30;;;5.60;81.30;;;;;;5033659;28;20100;-72
2023/05/17 04:24:48;;;;;;;5.65;2.30;;;5.60;81.50;;;;;;5033651;28;20133;-73
2023/05/17 04:27:14;;;;;;;6.13;2.40;;;5.60;81.40;;;;;;5033685;28;20374;-74
2023/05/17 04:29:40;;;;;;;6.93;3.53;;;5.70;81.30;;;;;;5032396;28;20059;-73
2023/05/17 04:32:07;;;;;;;7.82;3.70;;;5.80;81.00;;;;;;5033605;28;20030;-73
2023/05/17 04:34:33;;;;;;;9.48;4.50;;;5.80;80.80;;;;;;5032496;28;20022;-75
2023/05/17 04:36:59;;;;;;;6.90;3.78;;;5.90;80.80;;;;;;5032369;28;20029;-76
2023/05/17 04:39:24;;;;;;;63.25;10.05;;;6.00;81.40;;;;;;5032422;28;20099;-76
2023/05/17 04:41:50;;;;;;;10.95;4.35;;;6.40;88.90;;;;;;5032257;28;20029;-75
2023/05/17 04:44:16;;;;;;;12.05;3.38;;;6.80;96.10;;;;;;5032772;28;20381;-78
2023/05/17 04:46:42;;;;;;;6.88;3.20;;;7.00;96.10;;;;;;5031847;28;20045;-76
2023/05/17 04:49:08;;;;;;;8.75;2.90;;;7.20;95.40;;;;;;5032760;28;20021;-77
2023/05/17 04:51:34;;;;;;;5.78;2.20;;;7.30;90.20;;;;;;5033182;28;20029;-84
2023/05/17 04:54:00;;;;;;;25.40;5.80;;;7.50;84.30;;;;;;5032298;28;20553;-77
2023/05/17 04:56:27;;;;;;;14.75;3.50;;;7.80;80.80;;;;;;5032612;28;20025;-78
2023/05/17 04:58:53;;;;;;;7.05;2.00;;;8.20;78.90;;;;;;5033217;28;20017;-83
2023/05/17 05:01:19;;;;;;;8.27;2.03;;;8.40;76.10;;;;;;5032377;28;20040;-79
2023/05/17 05:03:44;;;;;;;2.65;1.00;;;8.40;75.20;;;;;;5031538;28;20021;-77
2023/05/17 05:06:10;;;;;;;1.77;1.10;;;8.30;73.80;;;;;;5031711;28;20052;-76
2023/05/17 05:08:36;;;;;;;2.60;1.52;;;8.10;73.70;;;;;;5032277;28;20017;-76
2023/05/17 05:11:03;;;;;;;3.30;2.10;;;8.00;73.50;;;;;;5014973;28;20083;-79
2023/05/17 05:13:28;;;;;;;8.82;3.30;;;7.90;74.10;;;;;;5032071;28;20029;-75
2023/05/17 05:15:54;;;;;;;7.65;3.35;;;7.80;73.80;;;;;;5032012;28;20347;-75
2023/05/17 05:18:20;;;;;;;5.93;2.95;;;7.70;74.30;;;;;;5031934;28;20057;-75
2023/05/17 05:20:47;;;;;;;7.72;3.20;;;7.70;74.60;;;;;;5031783;28;20041;-74
2023/05/17 05:23:13;;;;;;;3.63;2.38;;;7.70;74.70;;;;;;5033684;28;20435;-77
2023/05/17 05:25:42;;;;;;;7.90;3.00;;;7.80;74.60;;;;;;5031717;28;20033;-79
2023/05/17 05:28:08;;;;;;;9.82;3.45;;;7.80;74.40;;;;;;5016042;28;20041;-74
2023/05/17 05:30:34;;;;;;;8.10;4.63;;;7.90;74.30;;;;;;5032729;28;20052;-76
2023/05/17 05:32:59;;;;;;;9.57;3.38;;;8.00;74.10;;;;;;5032847;28;20029;-79
2023/05/17 05:35:28;;;;;;;7.20;3.20;;;8.00;74.90;;;;;;5033594;28;20168;-76
2023/05/17 05:37:55;;;;;;;9.23;3.60;;;8.00;74.20;;;;;;5033572;28;20075;-75
2023/05/17 05:40:20;;;;;;;9.77;3.55;;;8.10;74.10;;;;;;5033015;28;20026;-74
2023/05/17 05:42:46;;;;;;;6.22;2.78;;;8.10;73.80;;;;;;5035830;28;20022;-76
2023/05/17 05:45:12;;;;;;;6.43;3.28;;;8.10;73.60;;;;;;5042542;28;20056;-76
2023/05/17 05:47:37;;;;;;;8.43;3.60;;;8.20;72.80;;;;;;5042189;28;20053;-78
2023/05/17 05:50:04;;;;;;;9.70;2.97;;;8.10;73.50;;;;;;5039214;28;20030;-73
2023/05/17 05:52:30;;;;;;;9.80;3.72;;;8.10;73.70;;;;;;5035425;28;20056;-74
2023/05/17 05:54:56;;;;;;;6.55;2.80;;;8.20;72.90;;;;;;5038164;28;20116;-74
2023/05/17 05:57:21;;;;;;;6.32;2.75;;;8.20;72.80;;;;;;5038781;28;20036;-74
2023/05/17 05:59:47;;;;;;;6.07;3.10;;;8.30;72.90;;;;;;5038881;28;20029;-74
2023/05/17 06:02:13;;;;;;;5.05;3.72;;;8.40;73.00;;;;;;5037207;28;20112;-74
2023/05/17 06:04:38;;;;;;;9.20;3.22;;;8.50;73.40;;;;;;5036447;28;20389;-74
2023/05/17 06:07:04;;;;;;;9.75;2.90;;;8.50;73.20;;;;;;5038560;28;20025;-79
2023/05/17 06:09:29;;;;;;;7.13;2.70;;;8.30;74.40;;;;;;5053899;28;20032;-77
2023/05/17 06:11:55;;;;;;;10.07;2.97;;;8.20;74.90;;;;;;5039215;28;20045;-78
2023/05/17 06:14:20;;;;;;;6.22;2.33;;;8.30;75.80;;;;;;5036254;28;20512;-72
2023/05/17 06:16:47;;;;;;;9.10;2.40;;;8.20;73.60;;;;;;5035169;28;20032;-73
2023/05/17 06:19:13;;;;;;;8.68;2.58;;;8.10;73.30;;;;;;5034829;28;20382;-72
2023/05/17 06:21:39;;;;;;;10.10;2.60;;;8.20;73.70;;;;;;5034863;28;20025;-73
2023/05/17 06:24:05;;;;;;;6.22;2.97;;;8.30;73.70;;;;;;5034564;28;20022;-74
2023/05/17 06:26:30;;;;;;;8.90;2.63;;;8.40;73.30;;;;;;5034937;28;20025;-73
2023/05/17 06:28:57;;;;;;;6.57;2.00;;;8.60;73.30;;;;;;5034835;28;20031;-73
2023/05/17 06:31:23;;;;;;;4.93;2.00;;;8.60;72.90;;;;;;5034344;28;20112;-74
2023/05/17 06:33:48;;;;;;;6.70;2.28;;;8.80;72.90;;;;;;5034628;28;20481;-75
2023/05/17 06:36:14;;;;;;;7.43;2.40;;;9.00;72.10;;;;;;5034319;28;20021;-74
2023/05/17 06:38:40;;;;;;;9.50;2.30;;;9.00;71.40;;;;;;5034121;28;20394;-73
2023/05/17 06:41:05;;;;;;;4.55;2.28;;;9.10;71.10;;;;;;5034632;28;20032;-74
2023/05/17 06:43:31;;;;;;;8.15;2.30;;;9.20;71.20;;;;;;5034440;28;20030;-74
2023/05/17 06:45:56;;;;;;;10.13;2.78;;;9.20;70.90;;;;;;5034036;28;20045;-75
2023/05/17 06:48:22;;;;;;;6.88;1.88;;;9.20;70.10;;;;;;5034165;28;20034;-73
2023/05/17 06:50:48;;;;;;;9.20;2.42;;;9.30;70.10;;;;;;5034047;28;20371;-73
2023/05/17 06:53:13;;;;;;;6.15;2.10;;;9.40;70.40;;;;;;5033961;28;20013;-74
2023/05/17 06:55:40;;;;;;;8.07;2.83;;;9.40;70.30;;;;;;5034101;28;20021;-74
2023/05/17 06:58:05;;;;;;;7.72;2.67;;;9.40;70.60;;;;;;5034100;28;20037;-74
2023/05/17 07:00:31;;;;;;;18.75;10.57;;;9.30;70.20;;;;;;5034096;28;20501;-73
2023/05/17 07:02:57;;;;;;;13.35;5.00;;;9.30;70.00;;;;;;5032595;28;20075;-73
2023/05/17 07:05:23;;;;;;;6.22;2.17;;;9.20;70.70;;;;;;5033594;28;20581;-73
2023/05/17 07:07:49;;;;;;;4.78;2.47;;;9.10;70.90;;;;;;5033736;28;20028;-76
2023/05/17 07:10:14;;;;;;;10.38;2.70;;;9.30;70.80;;;;;;5033762;28;20025;-74
2023/05/17 07:12:40;;;;;;;7.25;2.50;;;9.20;69.90;;;;;;5033692;28;20032;-73
2023/05/17 07:15:06;;;;;;;7.40;2.67;;;9.20;70.10;;;;;;5033715;28;20029;-73
2023/05/17 07:17:32;;;;;;;7.95;2.60;;;9.10;70.50;;;;;;5033512;28;20025;-76
2023/05/17 07:19:58;;;;;;;9.40;2.55;;;9.10;70.70;;;;;;5033649;28;20032;-79
2023/05/17 07:22:24;;;;;;;8.00;2.58;;;9.20;70.80;;;;;;5033351;28;20080;-77
2023/05/17 07:24:49;;;;;;;9.80;2.55;;;9.30;70.00;;;;;;5033604;28;20508;-77
2023/05/17 07:27:15;;;;;;;6.65;1.88;;;9.30;70.10;;;;;;5033752;28;20021;-77
2023/05/17 07:29:41;;;;;;;7.32;2.65;;;9.50;69.40;;;;;;5033420;28;20025;-76
2023/05/17 07:32:08;;;;;;;10.88;3.03;;;9.60;68.80;;;;;;5033458;28;20505;-74
2023/05/17 07:34:34;;;;;;;9.23;3.50;;;9.60;67.40;;;;;;5033188;28;20524;-75
2023/05/17 07:37:00;;;;;;;9.07;2.50;;;9.70;68.70;;;;;;5033244;28;20022;-79
2023/05/17 07:39:25;;;;;;;9.32;2.65;;;9.90;68.00;;;;;;5033499;28;20031;-78
2023/05/17 07:41:51;;;;;;;7.95;2.60;;;10.00;67.40;;;;;;5033114;28;20025;-78
2023/05/17 07:44:16;;;;;;;6.05;2.50;;;10.10;67.50;;;;;;5033153;28;20080;-79
2023/05/17 07:46:43;;;;;;;5.50;2.65;;;10.30;67.20;;;;;;5032884;28;20115;-76
2023/05/17 07:49:09;;;;;;;7.85;2.40;;;10.30;65.40;;;;;;5033169;28;20466;-78
2023/05/17 07:51:35;;;;;;;5.75;2.03;;;10.30;65.00;;;;;;5032760;28;20079;-78
2023/05/17 07:54:02;;;;;;;7.32;2.25;;;10.40;64.90;;;;;;5033158;28;20018;-80
2023/05/17 07:56:28;;;;;;;4.45;2.22;;;10.60;65.00;;;;;;5033086;28;20036;-80
2023/05/17 07:58:54;;;;;;;12.05;3.08;;;10.80;64.00;;;;;;5033099;28;20478;-80
2023/05/17 08:01:21;;;;;;;3.90;2.05;;;10.90;63.30;;;;;;5034003;28;20064;-80
2023/05/17 08:03:47;;;;;;;5.88;1.90;;;11.10;62.60;;;;;;5032839;28;20099;-79
2023/05/17 08:06:14;;;;;;;5.28;2.35;;;11.20;62.00;;;;;;5032564;28;20498;-78
2023/05/17 08:08:40;;;;;;;9.88;2.75;;;11.40;61.70;;;;;;5032884;28;20469;-79
2023/05/17 08:11:06;;;;;;;8.95;2.47;;;11.40;60.40;;;;;;5032780;28;20044;-80
2023/05/17 08:13:32;;;;;;;8.20;2.95;;;11.50;60.30;;;;;;5032832;28;20460;-79
2023/05/17 08:16:02;;;;;;;8.05;2.58;;;11.50;59.90;;;;;;5031980;28;20116;-79
2023/05/17 08:18:29;;;;;;;5.97;2.45;;;11.70;60.10;;;;;;5032441;28;20074;-77
2023/05/17 08:20:55;;;;;;;12.07;3.67;;;12.00;59.40;;;;;;5032743;28;20056;-77
2023/05/17 08:23:21;;;;;;;8.30;4.55;;;12.20;59.00;;;;;;5032394;28;20021;-77
2023/05/17 08:25:47;;;;;;;8.50;4.30;;;12.40;58.90;;;;;;5032308;28;20037;-73
2023/05/17 08:28:12;;;;;;;6.03;2.95;;;12.70;58.30;;;;;;5032488;28;20112;-77
2023/05/17 08:30:38;;;;;;;6.07;2.85;;;12.80;56.40;;;;;;5032184;28;20113;-76
2023/05/17 08:33:03;;;;;;;8.20;3.22;;;12.60;54.40;;;;;;5032360;28;20033;-74
2023/05/17 08:35:30;;;;;;;9.73;2.67;;;12.60;54.90;;;;;;5032198;28;20029;-73
2023/05/17 08:37:56;;;;;;;7.38;3.65;;;12.70;54.20;;;;;;5032191;28;20024;-73
2023/05/17 08:40:21;;;;;;;6.75;2.70;;;12.80;55.60;;;;;;5031751;28;20116;-76
2023/05/17 08:42:49;;;;;;;8.35;3.17;;;12.80;53.60;;;;;;5032041;28;20091;-78
2023/05/17 08:45:15;;;;;;;6.13;2.38;;;12.60;52.80;;;;;;5031860;28;20037;-77
2023/05/17 08:47:42;;;;;;;9.13;2.85;;;12.60;53.50;;;;;;5031956;28;20080;-78
2023/05/17 08:50:08;;;;;;;17.67;8.55;;;12.70;53.70;;;;;;5032417;28;20022;-75
2023/05/17 08:52:36;;;;;;;6.50;3.20;;;12.90;53.80;;;;;;5032273;28;20071;-76
2023/05/17 08:55:02;;;;;;;8.15;2.78;;;13.10;53.90;;;;;;5032047;28;20068;-75
2023/05/17 08:57:31;;;;;;;8.95;2.95;;;13.30;53.30;;;;;;5032063;28;20026;-75
2023/05/17 08:59:59;;;;;;;11.60;3.78;;;13.60;52.20;;;;;;5031947;28;20402;-75
2023/05/17 09:02:27;;;;;;;6.88;3.38;;;13.50;47.90;;;;;;5031412;28;20028;-75
2023/05/17 09:04:54;;;;;;;8.38;3.53;;;13.30;47.80;;;;;;5031587;28;20033;-73
2023/05/17 09:07:23;;;;;;;6.45;3.35;;;13.10;49.30;;;;;;5032431;28;20028;-75
2023/05/17 09:09:52;;;;;;;13.73;4.80;;;12.90;51.00;;;;;;5031455;28;20371;-75
2023/05/17 09:12:19;;;;;;;6.38;2.80;;;13.10;52.10;;;;;;5030996;28;20037;-77
2023/05/17 09:14:45;;;;;;;7.90;3.00;;;13.20;52.00;;;;;;5031121;28;20501;-78
2023/05/17 09:17:18;;;;;;;9.88;3.10;;;13.30;53.80;;;;;;5031144;28;20022;-74
2023/05/17 09:19:46;;;;;;;7.32;2.50;;;13.40;51.80;;;;;;5031281;28;20076;-76
2023/05/17 09:22:17;;;;;;;8.95;2.63;;;13.60;52.60;;;;;;5031075;28;20021;-73
2023/05/17 09:24:43;;;;;;;8.23;2.97;;;13.80;52.50;;;;;;5031346;28;20041;-77
2023/05/17 09:27:14;;;;;;;8.88;2.80;;;13.60;50.00;;;;;;5033253;28;20018;-74
2023/05/17 09:29:40;;;;;;;7.72;2.97;;;13.40;50.60;;;;;;5035594;28;20032;-74
2023/05/17 09:32:17;;;;;;;10.30;3.67;;;13.40;50.00;;;;;;5035887;28;20029;-73
2023/05/17 09:34:45;;;;;;;7.80;2.83;;;13.50;50.70;;;;;;5035469;28;20474;-73
2023/05/17 09:37:17;;;;;;;9.95;2.95;;;13.70;50.30;;;;;;5036654;28;20047;-74
2023/05/17 09:39:44;;;;;;;6.22;2.80;;;13.70;50.30;;;;;;5036481;28;20021;-73
2023/05/17 09:42:10;;;;;;;5.47;2.63;;;13.70;50.50;;;;;;5036599;28;20040;-75
2023/05/17 09:44:52;;;;;;;9.15;3.15;;;13.80;50.20;;;;;;5036424;28;20026;-79
2023/05/17 09:47:28;;;;;;;7.72;2.88;;;13.80;50.30;;;;;;5036412;28;20045;-77
2023/05/17 09:49:55;;;;;;;9.63;3.03;;;13.80;50.40;;;;;;5036494;28;20045;-74
2023/05/17 09:52:23;;;;;;;7.38;2.65;;;13.90;49.50;;;;;;5036470;28;20025;-78
2023/05/17 09:54:55;;;;;;;8.07;3.13;;;13.80;49.20;;;;;;5036203;28;20064;-74
2023/05/17 09:57:21;;;;;;;8.70;3.88;;;14.00;50.00;;;;;;5036285;28;20092;-74
2023/05/17 09:59:47;;;;;;;6.63;2.90;;;14.30;50.30;;;;;;5036078;28;20021;-73
2023/05/17 10:02:23;;;;;;;11.23;3.45;;;14.50;46.40;;;;;;5034941;28;20026;-74
2023/05/17 10:04:50;;;;;;;;;;;14.60;46.90;;;;;;5036240;28;20102;-76
2023/05/17 10:07:18;;;;;;;7.47;2.70;;;14.60;45.70;;;;;;5034744;28;19905;-76
2023/05/17 10:09:48;;;;;;;9.50;3.45;;;14.50;44.60;;;;;;5037812;28;20021;-81
2023/05/17 10:12:16;;;;;;;10.52;3.20;;;14.40;45.00;;;;;;5035023;28;20035;-73
2023/05/17 10:14:43;;;;;;;8.20;3.88;;;13.90;47.00;;;;;;5035878;28;20036;-73
2023/05/17 10:17:10;;;;;;;6.22;2.83;;;13.50;47.30;;;;;;5035787;28;20037;-74
2023/05/17 10:19:36;;;;;;;6.82;3.28;;;13.50;48.50;;;;;;5035868;28;20021;-75
2023/05/17 10:22:02;;;;;;;7.80;3.30;;;13.70;48.80;;;;;;5035699;28;20045;-73
2023/05/17 10:24:30;;;;;;;5.80;3.35;;;13.70;49.00;;;;;;5035633;28;20485;-73
2023/05/17 10:26:56;;;;;;;9.55;3.28;;;13.80;48.90;;;;;;5034492;28;20377;-73
2023/05/17 10:29:23;;;;;;;7.70;2.92;;;14.00;48.10;;;;;;5035715;28;20029;-74
2023/05/17 10:31:52;;;;;;;6.13;3.33;;;14.30;47.30;;;;;;5035510;28;20565;-76
2023/05/17 10:34:19;;;;;;;8.25;3.40;;;14.70;47.70;;;;;;5033902;28;20434;-74
2023/05/17 10:36:47;;;;;;;7.90;3.30;;;14.70;45.40;;;;;;5035186;28;20331;-73
2023/05/17 10:39:13;;;;;;;6.32;3.00;;;14.50;45.60;;;;;;5035105;28;20025;-73
2023/05/17 10:41:42;;;;;;;11.52;5.47;;;14.70;45.80;;;;;;5035451;28;20025;-74
2023/05/17 10:44:11;;;;;;;7.97;3.25;;;14.80;44.70;;;;;;5034147;28;20033;-73
2023/05/17 10:46:38;;;;;;;8.55;3.55;;;14.70;42.80;;;;;;5034928;28;20057;-74
2023/05/17 10:49:03;;;;;;;5.53;3.17;;;14.50;42.60;;;;;;5033996;28;20022;-74
2023/05/17 10:51:33;;;;;;;8.40;3.15;;;14.30;43.80;;;;;;5034975;28;20028;-73
2023/05/17 10:54:17;;;;;;;5.10;3.05;;;14.30;45.40;;;;;;5035114;28;20030;-72
2023/05/17 10:56:51;;;;;;;7.35;3.63;;;14.50;45.40;;;;;;5034682;28;20083;-72
2023/05/17 10:59:25;;;;;;;7.10;3.40;;;14.50;45.20;;;;;;5033870;28;20022;-74
2023/05/17 11:01:58;;;;;;;7.50;3.07;;;14.30;45.00;;;;;;5035023;28;20024;-73
2023/05/17 11:04:33;;;;;;;6.07;2.88;;;14.40;46.20;;;;;;5034804;28;20621;-72
2023/05/17 11:07:28;;;;;;;6.33;3.17;;;14.70;45.80;;;;;;5034966;28;20427;-74
2023/05/17 11:10:15;;;;;;;10.13;3.80;;;15.10;43.30;;;;;;5034924;28;20088;-74
2023/05/17 11:12:52;;;;;;;5.97;3.45;;;15.00;42.60;;;;;;5035017;28;20025;-72
2023/05/17 11:15:22;;;;;;;5.57;3.25;;;14.90;43.30;;;;;;5034940;28;20030;-73
2023/05/17 11:17:52;;;;;;;7.47;3.40;;;14.70;43.20;;;;;;5034891;28;20056;-73
2023/05/17 11:20:24;;;;;;;6.28;3.50;;;14.70;43.50;;;;;;5035216;28;20053;-73
2023/05/17 11:22:57;;;;;;;9.20;3.65;;;14.40;44.90;;;;;;5034639;28;20104;-73
2023/05/17 11:25:23;;;;;;;9.63;3.20;;;14.30;45.70;;;;;;5034560;28;20059;-72
2023/05/17 11:27:50;;;;;;;6.72;3.35;;;14.50;47.20;;;;;;5034459;28;20466;-73
2023/05/17 11:30:25;;;;;;;11.00;3.38;;;14.60;46.00;;;;;;5034472;28;20110;-73
2023/05/17 11:32:53;;;;;;;6.05;3.58;;;14.80;45.80;;;;;;5034459;28;20482;-73
2023/05/17 11:35:26;;;;;;;9.35;3.90;;;15.00;46.00;;;;;;5034289;28;20394;-72
2023/05/17 11:37:53;;;;;;;6.78;3.35;;;15.30;45.60;;;;;;5034320;28;20100;-73
2023/05/17 11:40:29;;;;;;;9.50;3.60;;;15.50;44.90;;;;;;5034322;28;20115;-74
2023/05/17 11:43:18;;;;;;;5.28;3.20;;;15.30;44.10;;;;;;5034480;28;20026;-73
2023/05/17 11:45:49;;;;;;;11.02;3.88;;;15.20;44.80;;;;;;5034140;28;20034;-74
2023/05/17 11:48:16;;;;;;;6.82;3.58;;;15.10;44.50;;;;;;5034209;28;20061;-75
2023/05/17 11:50:43;;;;;;;7.68;3.72;;;15.20;44.00;;;;;;5033528;28;20363;-74
2023/05/17 11:53:09;;;;;;;6.32;3.40;;;15.10;44.20;;;;;;5034014;28;20093;-72
2023/05/17 11:55:43;;;;;;;9.88;3.72;;;15.10;44.20;;;;;;5033965;28;20049;-72
2023/05/17 11:58:11;;;;;;;9.73;4.03;;;15.00;44.10;;;;;;5034136;28;20496;-75
2023/05/17 12:00:39;;;;;;;6.72;3.22;;;15.00;45.70;;;;;;5034101;28;20040;-74
2023/05/17 12:03:23;;;;;;;6.63;3.97;;;15.20;45.00;;;;;;5033928;28;20120;-74
2023/05/17 12:06:06;;;;;;;9.63;3.20;;;15.20;45.10;;;;;;5033723;28;20041;-73
2023/05/17 12:08:34;;;;;;;10.07;3.85;;;15.60;44.30;;;;;;5033968;28;20328;-73
2023/05/17 12:11:00;;;;;;;8.95;3.45;;;16.40;43.00;;;;;;5033606;28;20032;-72
2023/05/17 12:13:30;;;;;;;8.95;4.07;;;16.80;41.80;;;;;;5033890;28;20018;-77
2023/05/17 12:15:59;;;;;;;12.27;5.85;;;17.00;41.90;;;;;;5033671;28;20025;-72
2023/05/17 12:18:38;;;;;;;8.20;3.58;;;17.10;41.40;;;;;;5033832;28;20060;-75
2023/05/17 12:21:05;;;;;;;9.68;3.97;;;17.40;39.90;;;;;;5033808;28;20021;-73
2023/05/17 12:23:36;;;;;;;5.10;3.70;;;17.50;40.30;;;;;;5033856;28;20021;-75
2023/05/17 12:26:03;;;;;;;5.53;3.42;;;17.70;39.30;;;;;;5033818;28;20033;-72
2023/05/17 12:28:29;;;;;;;8.10;3.60;;;17.90;38.10;;;;;;5031892;28;20032;-74
2023/05/17 12:31:01;;;;;;;6.00;3.30;;;17.90;38.90;;;;;;5033336;28;20037;-74
2023/05/17 12:33:38;;;;;;;7.78;3.38;;;18.00;38.70;;;;;;5033228;28;20103;-76
2023/05/17 12:36:05;;;;;;;7.00;4.13;;;17.80;37.80;;;;;;5033250;28;20462;-72
2023/05/17 12:38:34;;;;;;;6.07;3.42;;;17.80;38.30;;;;;;5033110;28;20057;-73
2023/05/17 12:41:02;;;;;;;6.65;3.50;;;18.30;38.40;;;;;;5033101;28;20532;-76
2023/05/17 12:43:30;;;;;;;5.10;3.55;;;18.60;37.70;;;;;;5035346;28;20059;-72
2023/05/17 12:46:06;;;;;;;8.35;3.53;;;18.70;36.80;;;;;;5033100;28;20029;-73
2023/05/17 12:48:33;;;;;;;6.15;3.80;;;18.50;36.20;;;;;;5033222;28;20021;-73
2023/05/17 12:51:14;;;;;;;8.23;3.80;;;18.30;37.40;;;;;;5033379;28;20022;-74
2023/05/17 12:53:47;;;;;;;8.82;3.80;;;18.00;37.00;;;;;;5031954;28;20030;-74
2023/05/17 12:56:29;;;;;;;6.78;4.07;;;17.80;36.80;;;;;;5033288;28;20419;-74